sensor_id;sensor_type;location;lat;lon;timestamp;pressure;altitude;pressure_sealevel;temperature;humidity
64933;BME280;51446;53.850;10.662;2023-06-22T00:00:42;101881.53;;;17.77;100.00
64933;BME280;51446;53.850;10.662;2023-06-22T00:03:08;101873.72;;;18.13;100.00
64933;BME280;51446;53.850;10.662;2023-06-22T00:05:34;101878.16;;;18.23;100.00
64933;BME280;51446;53.850;10.662;2023-06-22T00:08:02;101882.59;;;18.36;100.00
64933;BME280;51446;53.850;10.662;2023-06-22T00:10:29;101881.69;;;18.19;100.00
64933;BME280;51446;53.850;10.662;2023-06-22T00:12:54;101877.22;;;17.98;100.00
64933;BME280;51446;53.850;10.662;2023-06-22T00:15:19;101882.56;;;18.16;100.00
64933;BME280;51446;53.850;10.662;2023-06-22T00:17:45;101885.19;;;17.98;100.00
64933;BME280;51446;53.850;10.662;2023-06-22T00:20:10;101894.78;;;17.71;100.00
64933;BME280;51446;53.850;10.662;2023-06-22T00:22:36;101892.97;;;17.61;100.00
64933;BME280;51446;53.850;10.662;2023-06-22T00:25:06;101897.34;;;17.56;100.00
64933;BME280;51446;53.850;10.662;2023-06-22T00:27:31;101888.38;;;17.27;100.00
64933;BME280;51446;53.850;10.662;2023-06-22T00:29:56;101893.59;;;17.18;100.00
64933;BME280;51446;53.850;10.662;2023-06-22T00:32:21;101888.06;;;16.87;100.00
64933;BME280;51446;53.850;10.662;2023-06-22T00:34:47;101892.41;;;16.79;100.00
64933;BME280;51446;53.850;10.662;2023-06-22T00:37:12;101893.25;;;16.73;100.00
64933;BME280;51446;53.850;10.662;2023-06-22T00:39:37;101898.31;;;16.47;100.00
64933;BME280;51446;53.850;10.662;2023-06-22T00:42:03;101903.03;;;16.82;100.00
64933;BME280;51446;53.850;10.662;2023-06-22T00:44:28;101896.38;;;17.38;100.00
64933;BME280;51446;53.850;10.662;2023-06-22T00:46:54;101891.16;;;17.49;100.00
64933;BME280;51446;53.850;10.662;2023-06-22T00:49:19;101896.44;;;17.46;100.00
64933;BME280;51446;53.850;10.662;2023-06-22T00:51:44;101904.16;;;17.10;100.00
64933;BME280;51446;53.850;10.662;2023-06-22T00:54:11;101898.19;;;17.44;100.00
64933;BME280;51446;53.850;10.662;2023-06-22T00:56:39;101898.19;;;17.47;100.00
64933;BME280;51446;53.850;10.662;2023-06-22T00:59:05;101892.00;;;17.45;100.00
64933;BME280;51446;53.850;10.662;2023-06-22T01:01:31;101903.31;;;17.11;100.00
64933;BME280;51446;53.850;10.662;2023-06-22T01:03:57;101904.88;;;16.89;100.00
64933;BME280;51446;53.850;10.662;2023-06-22T01:06:29;101904.06;;;16.96;100.00
64933;BME280;51446;53.850;10.662;2023-06-22T01:09:11;101898.47;;;16.62;100.00
64933;BME280;51446;53.850;10.662;2023-06-22T01:11:45;101883.28;;;16.44;100.00
64933;BME280;51446;53.850;10.662;2023-06-22T01:14:17;101907.84;;;16.28;100.00
64933;BME280;51446;53.850;10.662;2023-06-22T01:16:44;101921.53;;;15.91;100.00
64933;BME280;51446;53.850;10.662;2023-06-22T01:22:08;101926.81;;;15.90;100.00
64933;BME280;51446;53.850;10.662;2023-06-22T01:27:35;101917.88;;;16.63;100.00
64933;BME280;51446;53.850;10.662;2023-06-22T01:30:02;101905.91;;;17.10;100.00
64933;BME280;51446;53.850;10.662;2023-06-22T01:32:32;101914.88;;;17.26;100.00
64933;BME280;51446;53.850;10.662;2023-06-22T01:35:01;101907.72;;;17.15;100.00
64933;BME280;51446;53.850;10.662;2023-06-22T01:37:29;101902.38;;;17.08;100.00
64933;BME280;51446;53.850;10.662;2023-06-22T01:39:57;101896.50;;;16.41;100.00
64933;BME280;51446;53.850;10.662;2023-06-22T01:42:24;101902.63;;;16.36;100.00
64933;BME280;51446;53.850;10.662;2023-06-22T01:44:50;101902.63;;;16.36;100.00
64933;BME280;51446;53.850;10.662;2023-06-22T01:47:16;101895.91;;;16.76;100.00
64933;BME280;51446;53.850;10.662;2023-06-22T01:49:42;101898.97;;;17.26;100.00
64933;BME280;51446;53.850;10.662;2023-06-22T01:52:08;101899.00;;;17.29;100.00
64933;BME280;51446;53.850;10.662;2023-06-22T01:54:34;101898.84;;;17.07;100.00
64933;BME280;51446;53.850;10.662;2023-06-22T01:56:59;101898.19;;;17.45;100.00
64933;BME280;51446;53.850;10.662;2023-06-22T02:02:06;101893.59;;;17.13;100.00
64933;BME280;51446;53.850;10.662;2023-06-22T02:04:37;101903.34;;;17.21;100.00
64933;BME280;51446;53.850;10.662;2023-06-22T02:07:10;101901.78;;;17.57;100.00
64933;BME280;51446;53.850;10.662;2023-06-22T02:09:38;101901.66;;;17.30;100.00
64933;BME280;51446;53.850;10.662;2023-06-22T02:12:07;101902.47;;;17.22;100.00
64933;BME280;51446;53.850;10.662;2023-06-22T02:14:34;101896.56;;;17.71;100.00
64933;BME280;51446;53.850;10.662;2023-06-22T02:17:00;101889.94;;;16.97;100.00
64933;BME280;51446;53.850;10.662;2023-06-22T02:19:26;101901.03;;;16.53;100.00
64933;BME280;51446;53.850;10.662;2023-06-22T02:21:52;101901.66;;;16.27;100.00
64933;BME280;51446;53.850;10.662;2023-06-22T02:24:17;101901.00;;;16.52;100.00
64933;BME280;51446;53.850;10.662;2023-06-22T02:26:43;101903.44;;;16.30;100.00
64933;BME280;51446;53.850;10.662;2023-06-22T02:29:10;101910.16;;;15.97;100.00
64933;BME280;51446;53.850;10.662;2023-06-22T02:31:35;101917.72;;;15.71;100.00
64933;BME280;51446;53.850;10.662;2023-06-22T02:34:00;101908.97;;;15.75;100.00
64933;BME280;51446;53.850;10.662;2023-06-22T02:36:26;101916.25;;;15.91;100.00
64933;BME280;51446;53.850;10.662;2023-06-22T02:38:52;101912.94;;;16.09;100.00
64933;BME280;51446;53.850;10.662;2023-06-22T02:41:18;101920.50;;;15.80;100.00
64933;BME280;51446;53.850;10.662;2023-06-22T02:43:46;101918.63;;;15.73;100.00
64933;BME280;51446;53.850;10.662;2023-06-22T02:46:12;101912.38;;;15.65;100.00
64933;BME280;51446;53.850;10.662;2023-06-22T02:48:39;101913.88;;;16.15;100.00
64933;BME280;51446;53.850;10.662;2023-06-22T02:51:04;101907.16;;;16.49;100.00
64933;BME280;51446;53.850;10.662;2023-06-22T02:53:29;101899.38;;;16.66;100.00
64933;BME280;51446;53.850;10.662;2023-06-22T02:55:55;101891.88;;;17.19;100.00
64933;BME280;51446;53.850;10.662;2023-06-22T02:58:21;101893.31;;;16.81;100.00
64933;BME280;51446;53.850;10.662;2023-06-22T03:00:46;101894.53;;;17.20;100.00
64933;BME280;51446;53.850;10.662;2023-06-22T03:03:11;101897.75;;;16.85;100.00
64933;BME280;51446;53.850;10.662;2023-06-22T03:05:37;101895.47;;;16.27;100.00
64933;BME280;51446;53.850;10.662;2023-06-22T03:08:02;101907.63;;;16.06;100.00
64933;BME280;51446;53.850;10.662;2023-06-22T03:10:27;101909.91;;;16.60;100.00
64933;BME280;51446;53.850;10.662;2023-06-22T03:12:53;101903.00;;;16.79;100.00
64933;BME280;51446;53.850;10.662;2023-06-22T03:15:18;101898.03;;;17.17;100.00
64933;BME280;51446;53.850;10.662;2023-06-22T03:17:44;101893.72;;;17.40;100.00
64933;BME280;51446;53.850;10.662;2023-06-22T03:20:09;101900.59;;;17.05;100.00
64933;BME280;51446;53.850;10.662;2023-06-22T03:22:39;101905.53;;;16.65;100.00
64933;BME280;51446;53.850;10.662;2023-06-22T03:25:05;101916.47;;;16.11;100.00
64933;BME280;51446;53.850;10.662;2023-06-22T03:27:36;101914.88;;;16.26;100.00
64933;BME280;51446;53.850;10.662;2023-06-22T03:30:02;101912.44;;;16.46;100.00
64933;BME280;51446;53.850;10.662;2023-06-22T03:32:27;101904.03;;;16.92;100.00
64933;BME280;51446;53.850;10.662;2023-06-22T03:34:53;101906.00;;;17.21;100.00
64933;BME280;51446;53.850;10.662;2023-06-22T03:37:18;101904.78;;;16.78;100.00
64933;BME280;51446;53.850;10.662;2023-06-22T03:39:43;101914.66;;;16.95;100.00
64933;BME280;51446;53.850;10.662;2023-06-22T03:42:09;101922.16;;;16.48;100.00
64933;BME280;51446;53.850;10.662;2023-06-22T03:44:35;101932.69;;;15.69;100.00
64933;BME280;51446;53.850;10.662;2023-06-22T03:47:02;101941.81;;;15.89;100.00
64933;BME280;51446;53.850;10.662;2023-06-22T03:49:27;101928.41;;;16.55;100.00
64933;BME280;51446;53.850;10.662;2023-06-22T03:51:52;101919.78;;;16.78;100.00
64933;BME280;51446;53.850;10.662;2023-06-22T03:54:17;101929.34;;;16.63;100.00
64933;BME280;51446;53.850;10.662;2023-06-22T03:56:43;101931.88;;;16.48;100.00
64933;BME280;51446;53.850;10.662;2023-06-22T03:59:08;101931.31;;;16.83;100.00
64933;BME280;51446;53.850;10.662;2023-06-22T04:01:33;101935.59;;;16.69;100.00
64933;BME280;51446;53.850;10.662;2023-06-22T04:03:58;101939.25;;;16.83;100.00
64933;BME280;51446;53.850;10.662;2023-06-22T04:06:24;101942.50;;;17.62;100.00
64933;BME280;51446;53.850;10.662;2023-06-22T04:08:49;101928.31;;;17.58;100.00
64933;BME280;51446;53.850;10.662;2023-06-22T04:11:17;101932.53;;;17.27;100.00
64933;BME280;51446;53.850;10.662;2023-06-22T04:13:43;101928.06;;;17.18;100.00
64933;BME280;51446;53.850;10.662;2023-06-22T04:16:08;101939.59;;;17.19;100.00
64933;BME280;51446;53.850;10.662;2023-06-22T04:18:33;101942.91;;;16.93;100.00
64933;BME280;51446;53.850;10.662;2023-06-22T04:20:58;101944.66;;;16.91;100.00
64933;BME280;51446;53.850;10.662;2023-06-22T04:23:24;101949.94;;;16.91;100.00
64933;BME280;51446;53.850;10.662;2023-06-22T04:25:49;101957.78;;;16.81;100.00
64933;BME280;51446;53.850;10.662;2023-06-22T04:28:14;101958.63;;;16.76;100.00
64933;BME280;51446;53.850;10.662;2023-06-22T04:30:39;101967.47;;;16.81;100.00
64933;BME280;51446;53.850;10.662;2023-06-22T04:33:12;101955.25;;;16.91;100.00
64933;BME280;51446;53.850;10.662;2023-06-22T04:35:38;101950.88;;;16.94;100.00
64933;BME280;51446;53.850;10.662;2023-06-22T04:38:06;101949.13;;;16.99;100.00
64933;BME280;51446;53.850;10.662;2023-06-22T04:40:31;101949.22;;;17.10;100.00
64933;BME280;51446;53.850;10.662;2023-06-22T04:42:56;101949.25;;;17.12;100.00
64933;BME280;51446;53.850;10.662;2023-06-22T04:45:22;101950.19;;;17.22;100.00
64933;BME280;51446;53.850;10.662;2023-06-22T04:47:47;101951.94;;;17.21;100.00
64933;BME280;51446;53.850;10.662;2023-06-22T04:50:12;101948.47;;;17.28;100.00
64933;BME280;51446;53.850;10.662;2023-06-22T04:52:38;101949.50;;;17.47;100.00
64933;BME280;51446;53.850;10.662;2023-06-22T04:55:04;101953.06;;;17.57;100.00
64933;BME280;51446;53.850;10.662;2023-06-22T04:57:29;101947.66;;;17.39;100.00
64933;BME280;51446;53.850;10.662;2023-06-22T05:00:01;101954.84;;;17.57;100.00
64933;BME280;51446;53.850;10.662;2023-06-22T05:02:26;101953.88;;;17.42;100.00
64933;BME280;51446;53.850;10.662;2023-06-22T05:04:52;101956.53;;;17.48;100.00
64933;BME280;51446;53.850;10.662;2023-06-22T05:07:21;101950.41;;;17.59;100.00
64933;BME280;51446;53.850;10.662;2023-06-22T05:09:50;101946.84;;;17.52;100.00
64933;BME280;51446;53.850;10.662;2023-06-22T05:12:15;101953.13;;;17.66;100.00
64933;BME280;51446;53.850;10.662;2023-06-22T05:14:41;101958.47;;;17.80;100.00
64933;BME280;51446;53.850;10.662;2023-06-22T05:17:06;101955.78;;;17.68;100.00
64933;BME280;51446;53.850;10.662;2023-06-22T05:19:38;101955.06;;;18.00;100.00
64933;BME280;51446;53.850;10.662;2023-06-22T05:22:03;101956.94;;;18.18;100.00
64933;BME280;51446;53.850;10.662;2023-06-22T05:24:29;101949.03;;;18.50;100.00
64933;BME280;51446;53.850;10.662;2023-06-22T05:26:54;101941.97;;;18.54;100.00
64933;BME280;51446;53.850;10.662;2023-06-22T05:29:20;101956.06;;;18.44;100.00
64933;BME280;51446;53.850;10.662;2023-06-22T05:31:47;101958.78;;;18.56;100.00
64933;BME280;51446;53.850;10.662;2023-06-22T05:34:12;101961.44;;;18.65;100.00
64933;BME280;51446;53.850;10.662;2023-06-22T05:36:38;101961.44;;;18.53;100.00
64933;BME280;51446;53.850;10.662;2023-06-22T05:39:12;101970.31;;;18.72;100.00
64933;BME280;51446;53.850;10.662;2023-06-22T05:41:38;101970.22;;;18.35;100.00
64933;BME280;51446;53.850;10.662;2023-06-22T05:44:03;101970.28;;;18.57;100.00
64933;BME280;51446;53.850;10.662;2023-06-22T05:46:29;101965.88;;;18.63;100.00
64933;BME280;51446;53.850;10.662;2023-06-22T05:48:54;101965.88;;;18.65;100.00
64933;BME280;51446;53.850;10.662;2023-06-22T05:51:19;101974.75;;;18.75;100.00
64933;BME280;51446;53.850;10.662;2023-06-22T05:53:44;101967.69;;;19.00;100.00
64933;BME280;51446;53.850;10.662;2023-06-22T05:56:14;101972.09;;;19.24;100.00
64933;BME280;51446;53.850;10.662;2023-06-22T05:58:39;101957.88;;;19.54;100.00
64933;BME280;51446;53.850;10.662;2023-06-22T06:01:05;101968.50;;;19.81;100.00
64933;BME280;51446;53.850;10.662;2023-06-22T06:03:30;101965.78;;;19.91;100.00
64933;BME280;51446;53.850;10.662;2023-06-22T06:05:55;101967.41;;;20.19;100.00
64933;BME280;51446;53.850;10.662;2023-06-22T06:08:20;101963.75;;;20.43;100.00
64933;BME280;51446;53.850;10.662;2023-06-22T06:10:46;101962.72;;;20.62;100.00
64933;BME280;51446;53.850;10.662;2023-06-22T06:13:11;101962.72;;;20.70;100.00
64933;BME280;51446;53.850;10.662;2023-06-22T06:15:37;101954.56;;;20.90;100.00
64933;BME280;51446;53.850;10.662;2023-06-22T06:18:02;101951.75;;;21.03;100.00
64933;BME280;51446;53.850;10.662;2023-06-22T06:20:30;101942.56;;;21.33;100.00
64933;BME280;51446;53.850;10.662;2023-06-22T06:22:55;101939.84;;;21.41;100.00
64933;BME280;51446;53.850;10.662;2023-06-22T06:25:21;101952.22;;;22.24;100.00
64933;BME280;51446;53.850;10.662;2023-06-22T06:27:48;101938.41;;;22.55;100.00
64933;BME280;51446;53.850;10.662;2023-06-22T06:30:15;101945.31;;;22.68;100.00
64933;BME280;51446;53.850;10.662;2023-06-22T06:32:41;101937.34;;;22.65;100.00
64933;BME280;51446;53.850;10.662;2023-06-22T06:35:08;101942.41;;;22.84;94.09
64933;BME280;51446;53.850;10.662;2023-06-22T06:37:38;101945.69;;;23.00;89.45
64933;BME280;51446;53.850;10.662;2023-06-22T06:40:04;101948.38;;;23.50;86.06
64933;BME280;51446;53.850;10.662;2023-06-22T06:42:31;101951.78;;;23.11;79.68
64933;BME280;51446;53.850;10.662;2023-06-22T06:44:57;101946.41;;;23.10;85.91
64933;BME280;51446;53.850;10.662;2023-06-22T06:47:22;101943.28;;;22.83;85.82
64933;BME280;51446;53.850;10.662;2023-06-22T06:49:47;101940.03;;;23.65;90.54
64933;BME280;51446;53.850;10.662;2023-06-22T06:52:13;101933.72;;;24.51;79.39
64933;BME280;51446;53.850;10.662;2023-06-22T06:54:38;101946.53;;;23.53;73.34
64933;BME280;51446;53.850;10.662;2023-06-22T06:57:03;101944.09;;;23.41;75.85
64933;BME280;51446;53.850;10.662;2023-06-22T06:59:29;101945.03;;;23.38;80.05
64933;BME280;51446;53.850;10.662;2023-06-22T07:01:55;101947.44;;;23.52;82.22
64933;BME280;51446;53.850;10.662;2023-06-22T07:04:21;101950.38;;;23.84;86.93
64933;BME280;51446;53.850;10.662;2023-06-22T07:06:46;101941.25;;;23.49;84.68
64933;BME280;51446;53.850;10.662;2023-06-22T07:09:11;101945.19;;;23.31;81.27
64933;BME280;51446;53.850;10.662;2023-06-22T07:11:36;101943.75;;;23.11;83.16
64933;BME280;51446;53.850;10.662;2023-06-22T07:14:02;101944.78;;;23.51;82.06
64933;BME280;51446;53.850;10.662;2023-06-22T07:16:27;101944.00;;;23.46;86.82
64933;BME280;51446;53.850;10.662;2023-06-22T07:18:54;101939.81;;;23.32;96.16
64933;BME280;51446;53.850;10.662;2023-06-22T07:21:19;101934.72;;;24.47;87.43
64933;BME280;51446;53.850;10.662;2023-06-22T07:23:44;101932.81;;;24.50;87.92
64933;BME280;51446;53.850;10.662;2023-06-22T07:26:10;101929.53;;;25.77;73.82
64933;BME280;51446;53.850;10.662;2023-06-22T07:28:37;101929.25;;;26.74;68.35
64933;BME280;51446;53.850;10.662;2023-06-22T07:31:03;101938.47;;;27.19;64.33
64933;BME280;51446;53.850;10.662;2023-06-22T07:33:29;101931.88;;;28.02;58.06
64933;BME280;51446;53.850;10.662;2023-06-22T07:35:54;101935.72;;;27.21;58.03
64933;BME280;51446;53.850;10.662;2023-06-22T07:38:20;101936.69;;;26.38;55.90
64933;BME280;51446;53.850;10.662;2023-06-22T07:40:45;101933.31;;;26.31;56.04
64933;BME280;51446;53.850;10.662;2023-06-22T07:43:10;101940.66;;;27.34;56.56
64933;BME280;51446;53.850;10.662;2023-06-22T07:45:37;101938.16;;;27.54;56.16
64933;BME280;51446;53.850;10.662;2023-06-22T07:48:05;101933.72;;;28.46;54.06
64933;BME280;51446;53.850;10.662;2023-06-22T07:50:30;101935.31;;;28.94;48.22
64933;BME280;51446;53.850;10.662;2023-06-22T07:52:56;101938.75;;;28.77;48.35
64933;BME280;51446;53.850;10.662;2023-06-22T07:55:21;101937.69;;;28.81;49.99
64933;BME280;51446;53.850;10.662;2023-06-22T07:57:48;101925.38;;;29.15;48.81
64933;BME280;51446;53.850;10.662;2023-06-22T08:00:14;101927.03;;;27.86;51.79
64933;BME280;51446;53.850;10.662;2023-06-22T08:02:41;101927.50;;;29.09;48.78
64933;BME280;51446;53.850;10.662;2023-06-22T08:05:08;101939.03;;;29.53;46.11
64933;BME280;51446;53.850;10.662;2023-06-22T08:07:37;101932.66;;;27.80;51.58
64933;BME280;51446;53.850;10.662;2023-06-22T08:10:10;101928.31;;;28.68;54.18
64933;BME280;51446;53.850;10.662;2023-06-22T08:12:36;101936.06;;;29.79;49.87
64933;BME280;51446;53.850;10.662;2023-06-22T08:15:01;101932.94;;;30.26;46.62
64933;BME280;51446;53.850;10.662;2023-06-22T08:17:26;101934.66;;;29.51;44.26
64933;BME280;51446;53.850;10.662;2023-06-22T08:19:52;101934.38;;;29.76;44.82
64933;BME280;51446;53.850;10.662;2023-06-22T08:22:17;101932.16;;;30.43;43.88
64933;BME280;51446;53.850;10.662;2023-06-22T08:24:43;101931.69;;;30.33;41.69
64933;BME280;51446;53.850;10.662;2023-06-22T08:27:10;101933.63;;;28.47;45.94
64933;BME280;51446;53.850;10.662;2023-06-22T08:29:37;101938.88;;;29.15;46.76
64933;BME280;51446;53.850;10.662;2023-06-22T08:32:02;101940.88;;;28.69;46.29
64933;BME280;51446;53.850;10.662;2023-06-22T08:34:28;101941.91;;;29.50;47.33
64933;BME280;51446;53.850;10.662;2023-06-22T08:36:53;101936.81;;;29.82;45.89
64933;BME280;51446;53.850;10.662;2023-06-22T08:39:19;101944.66;;;30.46;44.16
64933;BME280;51446;53.850;10.662;2023-06-22T08:41:48;101944.06;;;30.75;45.40
64933;BME280;51446;53.850;10.662;2023-06-22T08:44:13;101939.13;;;31.19;42.72
64933;BME280;51446;53.850;10.662;2023-06-22T08:46:39;101937.81;;;31.10;43.19
64933;BME280;51446;53.850;10.662;2023-06-22T08:49:06;101936.25;;;30.69;42.90
64933;BME280;51446;53.850;10.662;2023-06-22T08:51:31;101927.50;;;30.82;41.55
64933;BME280;51446;53.850;10.662;2023-06-22T08:53:56;101924.88;;;30.80;44.66
64933;BME280;51446;53.850;10.662;2023-06-22T08:56:22;101916.69;;;31.17;43.05
64933;BME280;51446;53.850;10.662;2023-06-22T08:58:47;101913.66;;;29.76;47.29
64933;BME280;51446;53.850;10.662;2023-06-22T09:01:12;101911.56;;;30.02;47.64
64933;BME280;51446;53.850;10.662;2023-06-22T09:03:37;101916.59;;;30.83;43.49
64933;BME280;51446;53.850;10.662;2023-06-22T09:06:03;101915.44;;;30.70;41.99
64933;BME280;51446;53.850;10.662;2023-06-22T09:08:28;101922.25;;;31.31;38.95
64933;BME280;51446;53.850;10.662;2023-06-22T09:10:54;101917.78;;;30.60;40.66
64933;BME280;51446;53.850;10.662;2023-06-22T09:13:19;101910.63;;;31.11;41.96
64933;BME280;51446;53.850;10.662;2023-06-22T09:15:44;101914.81;;;31.35;40.91
64933;BME280;51446;53.850;10.662;2023-06-22T09:18:10;101906.66;;;32.17;40.69
64933;BME280;51446;53.850;10.662;2023-06-22T09:20:36;101902.94;;;32.50;37.48
64933;BME280;51446;53.850;10.662;2023-06-22T09:23:01;101910.53;;;30.78;39.98
64933;BME280;51446;53.850;10.662;2023-06-22T09:25:26;101903.84;;;32.03;39.76
64933;BME280;51446;53.850;10.662;2023-06-22T09:27:52;101906.94;;;32.13;39.58
64933;BME280;51446;53.850;10.662;2023-06-22T09:30:17;101903.09;;;30.47;38.63
64933;BME280;51446;53.850;10.662;2023-06-22T09:32:42;101892.25;;;29.72;45.49
64933;BME280;51446;53.850;10.662;2023-06-22T09:35:09;101882.88;;;28.13;45.86
64933;BME280;51446;53.850;10.662;2023-06-22T09:37:34;101885.88;;;29.13;45.43
64933;BME280;51446;53.850;10.662;2023-06-22T09:40:01;101880.31;;;29.76;41.36
64933;BME280;51446;53.850;10.662;2023-06-22T09:42:26;101878.88;;;30.43;39.86
64933;BME280;51446;53.850;10.662;2023-06-22T09:44:51;101872.25;;;31.37;36.69
64933;BME280;51446;53.850;10.662;2023-06-22T09:47:16;101874.53;;;31.94;40.64
64933;BME280;51446;53.850;10.662;2023-06-22T09:49:41;101867.88;;;32.31;38.18
64933;BME280;51446;53.850;10.662;2023-06-22T09:52:10;101876.88;;;32.32;39.38
64933;BME280;51446;53.850;10.662;2023-06-22T09:54:36;101878.69;;;30.83;37.11
64933;BME280;51446;53.850;10.662;2023-06-22T09:57:01;101868.22;;;32.56;36.22
64933;BME280;51446;53.850;10.662;2023-06-22T09:59:27;101867.34;;;32.71;37.31
64933;BME280;51446;53.850;10.662;2023-06-22T10:01:52;101866.63;;;30.54;42.94
64933;BME280;51446;53.850;10.662;2023-06-22T10:04:17;101871.91;;;30.74;39.90
64933;BME280;51446;53.850;10.662;2023-06-22T10:06:43;101868.09;;;30.78;40.31
64933;BME280;51446;53.850;10.662;2023-06-22T10:09:08;101870.94;;;31.77;41.36
64933;BME280;51446;53.850;10.662;2023-06-22T10:11:33;101854.84;;;32.53;37.54
64933;BME280;51446;53.850;10.662;2023-06-22T10:14:00;101859.03;;;33.03;36.82
64933;BME280;51446;53.850;10.662;2023-06-22T10:16:30;101853.34;;;32.47;36.47
64933;BME280;51446;53.850;10.662;2023-06-22T10:18:56;101848.09;;;31.81;40.11
64933;BME280;51446;53.850;10.662;2023-06-22T10:21:21;101862.97;;;30.90;43.23
64933;BME280;51446;53.850;10.662;2023-06-22T10:23:46;101856.31;;;31.64;39.44
64933;BME280;51446;53.850;10.662;2023-06-22T10:26:11;101855.38;;;31.65;39.94
64933;BME280;51446;53.850;10.662;2023-06-22T10:28:37;101855.69;;;31.59;40.32
64933;BME280;51446;53.850;10.662;2023-06-22T10:31:02;101853.16;;;31.88;40.06
64933;BME280;51446;53.850;10.662;2023-06-22T10:33:27;101856.16;;;31.34;40.39
64933;BME280;51446;53.850;10.662;2023-06-22T10:35:52;101858.53;;;30.89;42.89
64933;BME280;51446;53.850;10.662;2023-06-22T10:38:18;101863.03;;;30.88;41.36
64933;BME280;51446;53.850;10.662;2023-06-22T10:40:43;101853.63;;;31.30;42.51
64933;BME280;51446;53.850;10.662;2023-06-22T10:43:08;101852.31;;;30.52;40.49
64933;BME280;51446;53.850;10.662;2023-06-22T10:45:33;101852.63;;;30.26;42.91
64933;BME280;51446;53.850;10.662;2023-06-22T10:47:59;101846.97;;;30.50;41.93
64933;BME280;51446;53.850;10.662;2023-06-22T10:50:25;101847.47;;;30.76;43.34
64933;BME280;51446;53.850;10.662;2023-06-22T10:52:50;101848.41;;;31.43;42.69
64933;BME280;51446;53.850;10.662;2023-06-22T10:55:15;101848.59;;;31.23;40.73
64933;BME280;51446;53.850;10.662;2023-06-22T10:57:41;101849.16;;;31.29;40.81
64933;BME280;51446;53.850;10.662;2023-06-22T11:00:09;101836.66;;;31.92;41.30
64933;BME280;51446;53.850;10.662;2023-06-22T11:02:36;101844.91;;;32.05;40.64
64933;BME280;51446;53.850;10.662;2023-06-22T11:05:01;101826.00;;;32.66;38.54
64933;BME280;51446;53.850;10.662;2023-06-22T11:07:28;101820.28;;;31.94;41.41
64933;BME280;51446;53.850;10.662;2023-06-22T11:09:54;101828.94;;;31.69;39.44
64933;BME280;51446;53.850;10.662;2023-06-22T11:12:19;101828.66;;;30.73;43.71
64933;BME280;51446;53.850;10.662;2023-06-22T11:14:44;101822.78;;;30.28;46.73
64933;BME280;51446;53.850;10.662;2023-06-22T11:17:10;101825.66;;;29.69;46.34
64933;BME280;51446;53.850;10.662;2023-06-22T11:19:35;101818.66;;;30.21;44.63
64933;BME280;51446;53.850;10.662;2023-06-22T11:22:01;101813.84;;;30.62;43.38
64933;BME280;51446;53.850;10.662;2023-06-22T11:24:26;101815.19;;;30.89;44.30
64933;BME280;51446;53.850;10.662;2023-06-22T11:26:52;101809.78;;;31.22;43.38
64933;BME280;51446;53.850;10.662;2023-06-22T11:29:17;101809.59;;;30.92;45.40
64933;BME280;51446;53.850;10.662;2023-06-22T11:31:42;101804.31;;;31.40;43.68
64933;BME280;51446;53.850;10.662;2023-06-22T11:34:08;101812.00;;;31.47;43.09
64933;BME280;51446;53.850;10.662;2023-06-22T11:36:33;101803.84;;;30.98;45.13
64933;BME280;51446;53.850;10.662;2023-06-22T11:39:00;101796.63;;;31.48;42.42
64933;BME280;51446;53.850;10.662;2023-06-22T11:41:26;101796.47;;;31.67;42.12
64933;BME280;51446;53.850;10.662;2023-06-22T11:43:51;101792.22;;;31.29;45.36
64933;BME280;51446;53.850;10.662;2023-06-22T11:46:16;101783.44;;;31.74;43.17
64933;BME280;51446;53.850;10.662;2023-06-22T11:48:41;101789.31;;;31.17;44.08
64933;BME280;51446;53.850;10.662;2023-06-22T11:51:07;101795.53;;;30.68;46.65
64933;BME280;51446;53.850;10.662;2023-06-22T11:53:33;101791.03;;;30.84;46.54
64933;BME280;51446;53.850;10.662;2023-06-22T11:55:59;101782.25;;;30.63;43.28
64933;BME280;51446;53.850;10.662;2023-06-22T11:58:25;101779.28;;;30.15;44.19
64933;BME280;51446;53.850;10.662;2023-06-22T12:00:50;101780.88;;;29.26;47.65
64933;BME280;51446;53.850;10.662;2023-06-22T12:03:17;101790.56;;;30.41;49.64
64933;BME280;51446;53.850;10.662;2023-06-22T12:05:42;101792.50;;;30.39;47.61
64933;BME280;51446;53.850;10.662;2023-06-22T12:08:07;101792.75;;;29.79;49.58
64933;BME280;51446;53.850;10.662;2023-06-22T12:10:32;101781.31;;;29.35;49.81
64933;BME280;51446;53.850;10.662;2023-06-22T12:12:58;101786.44;;;28.61;55.18
64933;BME280;51446;53.850;10.662;2023-06-22T12:15:25;101784.31;;;28.06;55.04
64933;BME280;51446;53.850;10.662;2023-06-22T12:17:50;101773.81;;;28.41;53.40
64933;BME280;51446;53.850;10.662;2023-06-22T12:20:15;101767.69;;;27.48;56.89
64933;BME280;51446;53.850;10.662;2023-06-22T12:22:41;101772.94;;;26.80;67.02
64933;BME280;51446;53.850;10.662;2023-06-22T12:25:07;101759.44;;;27.06;64.98
64933;BME280;51446;53.850;10.662;2023-06-22T12:27:33;101758.56;;;27.52;58.77
64933;BME280;51446;53.850;10.662;2023-06-22T12:29:59;101756.28;;;27.88;60.32
64933;BME280;51446;53.850;10.662;2023-06-22T12:32:24;101751.19;;;27.80;60.53
64933;BME280;51446;53.850;10.662;2023-06-22T12:34:50;101752.13;;;27.79;60.74
64933;BME280;51446;53.850;10.662;2023-06-22T12:37:15;101756.47;;;28.68;59.44